Thursday, September 20, 2018, 10:46 PM EDT
Back to Local

KORH, Worcester Regional Airport

Location: Worcester, MA, United States Lat: 42.267
Local Time: 10:46 PM EDT ( 2:46 GMT) Lon: -71.867
Time Zone: US/Eastern Elev: 1010 ft

Show me the last for .
Show Decoded

2018-09-20 22:38 METAR KORH 210238Z 14008KT 10SM SCT008 SCT012 13/12 A3030 RMK AO2 T01330122 =
2018-09-20 22:15 METAR KORH 210215Z 13007KT 10SM OVC010 14/12 A3030 RMK AO2 CIG 007V014 T01390122
                 =
2018-09-20 21:54 METAR KORH 210154Z 13006KT 10SM BKN008 OVC013 14/12 A3030 RMK AO2 CIG 007V011
                 SLP263 T01390122 =
2018-09-20 21:26 METAR KORH 210126Z 11007KT 10SM BKN010 OVC042 14/12 A3030 RMK AO2 T01390122 =
2018-09-20 20:54 METAR KORH 210054Z 10005KT 10SM SCT014 OVC044 14/12 A3030 RMK AO2 SLP263
                 T01390117 =
2018-09-20 20:01 METAR KORH 210001Z 10006KT 10SM FEW012 OVC043 14/12 A3028 RMK AO2 T01440122 =
2018-09-20 19:54 METAR KORH 202354Z 09004KT 10SM BKN014 OVC040 14/12 A3028 RMK AO2 SLP254
                 T01440122 10183 20144 50007 =
2018-09-20 19:12 METAR KORH 202312Z 11005KT 10SM BKN014 OVC040 15/13 A3028 RMK AO2 T01500128 =
2018-09-20 18:54 METAR KORH 202254Z 12005KT 10SM FEW014 FEW022 OVC040 16/13 A3028 RMK AO2 SLP256
                 T01560128 =
2018-09-20 18:44 METAR KORH 202244Z 06003KT 10SM SCT018 OVC040 15/12 A3029 RMK AO2 PRESRR
                 T01500122 =
2018-09-20 18:01 METAR KORH 202201Z 11004KT 10SM BKN017 OVC027 16/12 A3027 RMK AO2 T01560122 =
2018-09-20 17:54 METAR KORH 202154Z 09005KT 10SM SCT025 OVC035 16/13 A3027 RMK AO2 SLP250
                 T01560128 =
2018-09-20 16:54 METAR KORH 202054Z 06005KT 10SM FEW025 OVC037 17/12 A3025 RMK AO2 SLP245
                 T01670122 53002 =
2018-09-20 15:54 METAR KORH 201954Z VRB05KT 10SM SCT025 BKN039 17/12 A3025 RMK AO2 SLP244
                 T01670122 =
2018-09-20 15:06 METAR KORH 201906Z 07005KT 10SM SCT025 BKN039 17/12 A3025 RMK AO2 T01720117 =
2018-09-20 14:54 METAR KORH 201854Z VRB04KT 10SM BKN025 OVC038 17/12 A3024 RMK AO2 SLP242
                 T01720122 =
2018-09-20 14:52 METAR KORH 201852Z VRB05KT 10SM BKN025 BKN034 OVC041 17/12 A3025 RMK AO2 =
2018-09-20 13:54 METAR KORH 201754Z VRB03KT 10SM BKN039 18/11 A3025 RMK AO2 SLP244 T01780111
                 10178 20133 58011 =
2018-09-20 12:54 METAR KORH 201654Z VRB03KT 10SM SCT022 OVC037 17/12 A3028 RMK AO2 SLP253
                 T01670117 =
2018-09-20 12:46 METAR KORH 201646Z 08005KT 10SM BKN023 BKN029 OVC036 17/12 A3027 RMK AO2
                 T01670117 =
2018-09-20 11:54 METAR KORH 201554Z 02005KT 10SM FEW017 SCT024 BKN043 16/12 A3028 RMK AO2 SLP253
                 T01610117 =
2018-09-20 10:54 METAR KORH 201454Z VRB05KT 10SM FEW014 BKN023 OVC044 16/12 A3028 RMK AO2 SLP257
                 T01560117 51021 =
2018-09-20 10:27 METAR KORH 201427Z 03006KT 10SM FEW012 BKN018 OVC045 15/12 A3027 RMK AO2
                 T01500122 =
2018-09-20 09:54 METAR KORH 201354Z 03006KT 10SM OVC014 14/12 A3027 RMK AO2 SLP252 T01390117 =
2018-09-20 08:54 METAR KORH 201254Z 06009KT 10SM OVC013 13/11 A3023 RMK AO2 SLP240 T01330111 =
2018-09-20 07:54 METAR KORH 201154Z 04006KT 10SM SCT007 OVC013 13/12 A3022 RMK AO2 SLP235
                 T01280122 10133 20128 53019 =
2018-09-20 06:54 METAR KORH 201054Z 04004KT 10SM FEW008 OVC016 13/12 A3020 RMK AO2 SLP227
                 T01280117 =
2018-09-20 06:51 METAR KORH 201051Z 05005KT 10SM FEW008 OVC016 13/12 A3019 RMK AO2 =
2018-09-20 06:33 METAR KORH 201033Z 05007KT 10SM OVC011 13/12 A3018 RMK AO2 T01280117 =
2018-09-20 06:05 METAR KORH 201005Z 05007KT 10SM OVC009 13/12 A3017 RMK AO2 CIG 006V015 T01280117
                 =
2018-09-20 05:54 METAR KORH 200954Z 05007KT 10SM OVC012 13/12 A3016 RMK AO2 SLP215 T01280117 =
2018-09-20 05:43 METAR KORH 200943Z AUTO 06008KT 10SM BKN006 OVC012 13/12 A3016 RMK AO2 CIG
                 005V010 T01280117 =
2018-09-20 05:32 METAR KORH 200932Z AUTO 05008KT 10SM SCT006 OVC012 13/12 A3016 RMK AO2 T01280117
                 =
2018-09-20 04:54 METAR KORH 200854Z AUTO 05007KT 10SM BKN009 OVC015 13/12 A3015 RMK AO2 CIG
                 006V012 SLP210 T01280122 51007 =
2018-09-20 04:43 METAR KORH 200843Z AUTO 06005KT 10SM SCT009 OVC015 13/12 A3015 RMK AO2 T01280122
                 =
2018-09-20 04:33 METAR KORH 200833Z AUTO 04005KT 10SM BKN009 OVC015 13/12 A3015 RMK AO2 CIG
                 006V012 T01280122 =
2018-09-20 04:25 METAR KORH 200825Z AUTO 04005KT 10SM SCT007 OVC017 13/12 A3015 RMK AO2 T01330122
                 =
2018-09-20 03:54 METAR KORH 200754Z AUTO 06007KT 10SM BKN008 OVC014 13/12 A3014 RMK AO2 CIG
                 006V011 SLP209 T01330122 =
2018-09-20 03:17 METAR KORH 200717Z AUTO 04007KT 10SM FEW008 BKN013 OVC021 13/12 A3014 RMK AO2
                 T01330122 =
2018-09-20 03:10 METAR KORH 200710Z AUTO 04005KT 10SM FEW008 BKN015 OVC021 13/12 A3014 RMK AO2
                 T01330122 =
2018-09-20 02:54 METAR KORH 200654Z AUTO 03006KT 10SM BKN009 OVC016 13/12 A3015 RMK AO2 CIG
                 007V013 SLP209 T01330122 =
2018-09-20 02:28 METAR KORH 200628Z AUTO 03007KT 10SM BKN009 OVC016 13/12 A3014 RMK AO2 CIG
                 007V014 T01330122 =
2018-09-20 01:54 METAR KORH 200554Z AUTO 05007KT 10SM FEW006 BKN020 OVC050 13/12 A3013 RMK AO2
                 SLP202 60000 T01330122 10150 20133 55000 =
2018-09-20 01:44 METAR KORH 200544Z AUTO 05007KT 10SM FEW008 BKN012 OVC050 13/12 A3012 RMK AO2
                 T01330122
2018-09-20 01:35 METAR KORH 200535Z AUTO 04006KT 10SM SCT006 OVC016 13/12 A3013 RMK AO2 T01330122
                 =
2018-09-20 00:54 METAR KORH 200454Z 05005KT 10SM OVC006 13/13 A3012 RMK AO2 CIG 005V009 SLP201
                 T01330128 402110133 =
2018-09-20 00:32 METAR KORH 200432Z 04004KT 10SM BKN008 OVC012 13/13 A3012 RMK AO2 T01330128 =
2018-09-19 23:54 METAR KORH 200354Z 04005KT 10SM BKN010 OVC016 13/12 A3013 RMK AO2 CIG 008V011
                 SLP202 T01330122 =
2018-09-19 23:50 METAR KORH 200350Z 05007KT 10SM BKN010 OVC016 13/12 A3013 RMK AO2 =
2018-09-19 22:54 METAR KORH 200254Z 04005KT 10SM SCT008 OVC016 13/12 A3011 RMK AO2 SLP199 60000
                 T01330122 53009 =

Support USWX by starting your Amazon purchase here.